Portada
METAR-TAF:

METAR-TAF

Aeroports :

Aeroport d'Hèlsinki-Vantaa

Hèlsinki, Finlàndia

latitud: 60-19N, longitud: 024-58E, altitud: 51 m

Observació

L'informe es va fer fa 31 minuts, a les 12:50 UTC
Vent 14 kt del Nord, variant entre Nord-Oest i Nord-Est
Temperatura 20°C
Humitat 32%
Pressió 1026 hPa
Visibilitat 10 km o més
sense núvols per sota de 1500 mi sense presència de cumulonimbus.

METAR: EFHK 301250Z 01014KT 320V050 CAVOK 20/03 Q1026 NOSIG

Hora: 16:21 (13:21 UTC)

Pronòstic

L'informe es va fer fa 1 hora i 53 minuts, a les 11:28 UTC
Pronòstic vàlid del 30 a les 12 UTC al 31 a les 12 UTC
Vent 15 kt del Nord/Nord-Est
Visibilitat 10 km o més
sense núvols per sota de 1500 mi sense presència de cumulonimbus.
Probabilitat 40%
l' 30 a les 12 UTC al 30 a les 18 UTC
Vent 15 kt del Nord/Nord-Est amb ràfegues de 25 kt
Evolucionant progressivament
l' 30 a les 20 UTC al 30 a les 22 UTC
Vent 5 kt del Nord

TAF: EFHK 301128Z 3012/3112 03015KT CAVOK PROB40 3012/3018 03015G25KT BECMG 3020/3022 01005KT

Observacions i pronòstics meteorològics de més de 4000 aeroports (METAR i TAF).

Les estacions disponibles són els punts grocs i vermells al mapa.

Posi el ratolí al punt desitjat per veure el nom de l'estació.

Feu clic per veure les observacions i els pronòstics meteorològics.

Per canviar el mapa: feu clic els botons verds amb una creu de color negre per apropar; al botó verd amb un guió per allunyar la imatge; o en les fletxes verdes per a mapes adjacents.


METAR-TAF: